sensor_id;sensor_type;location;lat;lon;timestamp;pressure;altitude;pressure_sealevel;temperature;humidity
54918;BME280;40818;50.562;7.454;2023-08-12T00:03:09;97992.13;;;21.31;100.00
54918;BME280;40818;50.562;7.454;2023-08-12T00:13:12;98000.75;;;21.34;100.00
54918;BME280;40818;50.562;7.454;2023-08-12T00:23:20;98019.03;;;21.27;100.00
54918;BME280;40818;50.562;7.454;2023-08-12T00:33:24;98013.38;;;21.13;100.00
54918;BME280;40818;50.562;7.454;2023-08-12T00:43:30;98005.47;;;21.13;100.00
54918;BME280;40818;50.562;7.454;2023-08-12T00:53:34;97965.25;;;20.42;100.00
54918;BME280;40818;50.562;7.454;2023-08-12T01:03:41;97982.38;;;20.38;100.00
54918;BME280;40818;50.562;7.454;2023-08-12T01:13:49;97968.94;;;20.23;100.00
54918;BME280;40818;50.562;7.454;2023-08-12T01:23:57;97973.28;;;20.33;100.00
54918;BME280;40818;50.562;7.454;2023-08-12T01:34:07;97998.88;;;20.40;100.00
54918;BME280;40818;50.562;7.454;2023-08-12T01:44:15;97969.25;;;20.20;100.00
54918;BME280;40818;50.562;7.454;2023-08-12T01:54:18;97951.75;;;19.85;100.00
54918;BME280;40818;50.562;7.454;2023-08-12T02:04:25;97922.84;;;19.31;100.00
54918;BME280;40818;50.562;7.454;2023-08-12T02:14:29;97919.28;;;19.04;100.00
54918;BME280;40818;50.562;7.454;2023-08-12T02:24:35;97937.59;;;19.23;100.00
54918;BME280;40818;50.562;7.454;2023-08-12T02:34:38;97945.16;;;18.81;100.00
54918;BME280;40818;50.562;7.454;2023-08-12T02:44:46;97944.88;;;18.56;100.00
54918;BME280;40818;50.562;7.454;2023-08-12T02:54:50;97937.56;;;18.77;100.00
54918;BME280;40818;50.562;7.454;2023-08-12T03:04:58;97926.44;;;18.84;100.00
54918;BME280;40818;50.562;7.454;2023-08-12T03:15:02;97915.28;;;18.82;100.00
54918;BME280;40818;50.562;7.454;2023-08-12T03:25:09;97908.81;;;18.94;100.00
54918;BME280;40818;50.562;7.454;2023-08-12T03:35:16;97896.31;;;18.78;100.00
54918;BME280;40818;50.562;7.454;2023-08-12T03:45:22;97889.00;;;18.54;100.00
54918;BME280;40818;50.562;7.454;2023-08-12T03:55:26;97866.53;;;18.41;100.00
54918;BME280;40818;50.562;7.454;2023-08-12T04:05:33;97860.56;;;18.39;100.00
54918;BME280;40818;50.562;7.454;2023-08-12T04:15:37;97848.22;;;18.22;100.00
54918;BME280;40818;50.562;7.454;2023-08-12T04:25:45;97844.09;;;18.19;100.00
54918;BME280;40818;50.562;7.454;2023-08-12T04:35:50;97840.19;;;18.23;100.00
54918;BME280;40818;50.562;7.454;2023-08-12T04:45:59;97823.44;;;17.87;100.00
54918;BME280;40818;50.562;7.454;2023-08-12T04:56:03;97824.00;;;17.90;100.00
54918;BME280;40818;50.562;7.454;2023-08-12T05:06:10;97822.91;;;17.93;100.00
54918;BME280;40818;50.562;7.454;2023-08-12T05:16:14;97822.22;;;17.91;100.00
54918;BME280;40818;50.562;7.454;2023-08-12T05:26:20;97822.09;;;17.93;100.00
54918;BME280;40818;50.562;7.454;2023-08-12T05:36:24;97823.72;;;18.21;100.00
54918;BME280;40818;50.562;7.454;2023-08-12T05:46:30;97823.13;;;18.55;100.00
54918;BME280;40818;50.562;7.454;2023-08-12T05:56:33;97849.31;;;19.11;100.00
54918;BME280;40818;50.562;7.454;2023-08-12T06:06:39;97883.34;;;19.49;100.00
54918;BME280;40818;50.562;7.454;2023-08-12T06:16:43;97887.78;;;19.74;100.00
54918;BME280;40818;50.562;7.454;2023-08-12T06:26:49;97920.88;;;19.95;100.00
54918;BME280;40818;50.562;7.454;2023-08-12T06:36:53;97869.66;;;19.98;100.00
54918;BME280;40818;50.562;7.454;2023-08-12T06:46:58;97824.19;;;19.61;100.00
54918;BME280;40818;50.562;7.454;2023-08-12T06:57:02;97829.41;;;19.53;100.00
54918;BME280;40818;50.562;7.454;2023-08-12T07:07:08;97825.09;;;19.52;100.00
54918;BME280;40818;50.562;7.454;2023-08-12T07:17:12;97832.56;;;19.65;100.00
54918;BME280;40818;50.562;7.454;2023-08-12T07:27:18;97822.31;;;19.80;100.00
54918;BME280;40818;50.562;7.454;2023-08-12T07:37:21;97801.63;;;19.58;100.00
54918;BME280;40818;50.562;7.454;2023-08-12T07:47:27;97815.22;;;19.54;100.00
54918;BME280;40818;50.562;7.454;2023-08-12T07:57:31;97817.94;;;19.70;100.00
54918;BME280;40818;50.562;7.454;2023-08-12T08:07:37;97836.38;;;19.70;100.00
54918;BME280;40818;50.562;7.454;2023-08-12T08:17:40;97839.22;;;19.77;100.00
54918;BME280;40818;50.562;7.454;2023-08-12T08:27:46;97833.56;;;19.90;100.00
54918;BME280;40818;50.562;7.454;2023-08-12T08:37:50;97834.94;;;20.02;100.00
54918;BME280;40818;50.562;7.454;2023-08-12T08:47:56;97834.28;;;20.00;100.00
54918;BME280;40818;50.562;7.454;2023-08-12T08:58:00;97836.19;;;19.90;100.00
54918;BME280;40818;50.562;7.454;2023-08-12T09:08:07;97833.97;;;19.77;100.00
54918;BME280;40818;50.562;7.454;2023-08-12T09:18:11;97836.03;;;19.91;100.00
54918;BME280;40818;50.562;7.454;2023-08-12T09:28:17;97833.56;;;19.90;100.00
54918;BME280;40818;50.562;7.454;2023-08-12T09:38:24;97840.84;;;19.96;100.00
54918;BME280;40818;50.562;7.454;2023-08-12T09:48:31;97842.47;;;19.97;100.00
54918;BME280;40818;50.562;7.454;2023-08-12T09:58:35;97832.31;;;20.02;100.00
54918;BME280;40818;50.562;7.454;2023-08-12T10:08:42;97832.44;;;20.35;100.00
54918;BME280;40818;50.562;7.454;2023-08-12T10:18:46;97836.19;;;21.00;100.00
54918;BME280;40818;50.562;7.454;2023-08-12T10:28:54;97843.94;;;21.51;100.00
54918;BME280;40818;50.562;7.454;2023-08-12T10:38:57;97822.66;;;21.61;100.00
54918;BME280;40818;50.562;7.454;2023-08-12T10:49:08;97822.34;;;21.39;100.00
54918;BME280;40818;50.562;7.454;2023-08-12T10:59:54;97810.13;;;21.38;100.00
54918;BME280;40818;50.562;7.454;2023-08-12T11:09:59;97812.09;;;21.28;100.00
54918;BME280;40818;50.562;7.454;2023-08-12T11:20:10;97816.75;;;21.18;100.00
54918;BME280;40818;50.562;7.454;2023-08-12T11:30:15;97793.84;;;21.10;100.00
54918;BME280;40818;50.562;7.454;2023-08-12T11:40:22;97763.25;;;21.24;100.00
54918;BME280;40818;50.562;7.454;2023-08-12T11:50:27;97765.22;;;21.55;100.00
54918;BME280;40818;50.562;7.454;2023-08-12T12:00:33;97769.88;;;21.92;100.00
54918;BME280;40818;50.562;7.454;2023-08-12T12:10:36;97780.88;;;22.44;100.00
54918;BME280;40818;50.562;7.454;2023-08-12T12:20:56;97778.44;;;23.12;100.00
54918;BME280;40818;50.562;7.454;2023-08-12T12:31:00;97786.25;;;23.58;100.00
54918;BME280;40818;50.562;7.454;2023-08-12T12:41:06;97795.09;;;23.80;100.00
54918;BME280;40818;50.562;7.454;2023-08-12T12:51:09;97800.59;;;23.94;100.00
54918;BME280;40818;50.562;7.454;2023-08-12T13:01:15;97804.03;;;23.64;100.00
54918;BME280;40818;50.562;7.454;2023-08-12T13:11:19;97812.00;;;23.49;100.00
54918;BME280;40818;50.562;7.454;2023-08-12T13:21:25;97803.56;;;23.31;100.00
54918;BME280;40818;50.562;7.454;2023-08-12T13:31:29;97812.94;;;23.18;100.00
54918;BME280;40818;50.562;7.454;2023-08-12T13:41:35;97811.22;;;23.02;100.00
54918;BME280;40818;50.562;7.454;2023-08-12T13:51:38;97794.78;;;23.07;100.00
54918;BME280;40818;50.562;7.454;2023-08-12T14:01:44;97800.56;;;23.11;100.00
54918;BME280;40818;50.562;7.454;2023-08-12T14:11:48;97791.66;;;23.27;100.00
54918;BME280;40818;50.562;7.454;2023-08-12T14:21:54;97779.56;;;23.92;100.00
54918;BME280;40818;50.562;7.454;2023-08-12T14:31:57;97766.78;;;24.91;100.00
54918;BME280;40818;50.562;7.454;2023-08-12T14:42:04;97770.22;;;25.41;99.25
54918;BME280;40818;50.562;7.454;2023-08-12T14:52:15;97775.53;;;25.41;99.45
54918;BME280;40818;50.562;7.454;2023-08-12T15:02:22;97765.72;;;25.13;99.09
54918;BME280;40818;50.562;7.454;2023-08-12T15:12:25;97761.13;;;24.57;97.90
54918;BME280;40818;50.562;7.454;2023-08-12T15:22:32;97759.66;;;24.33;99.23
54918;BME280;40818;50.562;7.454;2023-08-12T15:32:36;97759.44;;;23.98;99.65
54918;BME280;40818;50.562;7.454;2023-08-12T15:42:42;97753.81;;;23.41;100.00
54918;BME280;40818;50.562;7.454;2023-08-12T15:52:46;97775.44;;;23.30;100.00
54918;BME280;40818;50.562;7.454;2023-08-12T16:02:52;97791.13;;;23.16;100.00
54918;BME280;40818;50.562;7.454;2023-08-12T16:12:56;97795.88;;;22.75;100.00
54918;BME280;40818;50.562;7.454;2023-08-12T16:23:02;97796.00;;;22.27;100.00
54918;BME280;40818;50.562;7.454;2023-08-12T16:33:05;97806.03;;;21.92;100.00
54918;BME280;40818;50.562;7.454;2023-08-12T16:43:11;97799.66;;;21.70;100.00
54918;BME280;40818;50.562;7.454;2023-08-12T16:53:15;97813.72;;;21.70;100.00
54918;BME280;40818;50.562;7.454;2023-08-12T17:03:21;97799.47;;;21.79;100.00
54918;BME280;40818;50.562;7.454;2023-08-12T17:13:24;97814.50;;;21.79;100.00
54918;BME280;40818;50.562;7.454;2023-08-12T17:23:30;97819.34;;;21.75;100.00
54918;BME280;40818;50.562;7.454;2023-08-12T17:33:33;97819.84;;;21.62;100.00
54918;BME280;40818;50.562;7.454;2023-08-12T17:43:39;97832.72;;;21.49;100.00
54918;BME280;40818;50.562;7.454;2023-08-12T17:53:44;97852.38;;;21.22;100.00
54918;BME280;40818;50.562;7.454;2023-08-12T18:03:51;97831.41;;;21.04;100.00
54918;BME280;40818;50.562;7.454;2023-08-12T18:13:54;97852.69;;;20.94;100.00
54918;BME280;40818;50.562;7.454;2023-08-12T18:24:00;97866.69;;;20.78;100.00
54918;BME280;40818;50.562;7.454;2023-08-12T18:34:04;97874.38;;;20.63;100.00
54918;BME280;40818;50.562;7.454;2023-08-12T18:44:10;97873.66;;;20.53;100.00
54918;BME280;40818;50.562;7.454;2023-08-12T18:54:14;97882.88;;;20.40;100.00
54918;BME280;40818;50.562;7.454;2023-08-12T19:04:20;97886.63;;;20.29;100.00
54918;BME280;40818;50.562;7.454;2023-08-12T19:14:23;97897.91;;;20.13;100.00
54918;BME280;40818;50.562;7.454;2023-08-12T19:24:29;97895.38;;;20.04;100.00
54918;BME280;40818;50.562;7.454;2023-08-12T19:34:33;97897.78;;;19.89;100.00
54918;BME280;40818;50.562;7.454;2023-08-12T19:44:39;97913.47;;;19.54;100.00
54918;BME280;40818;50.562;7.454;2023-08-12T19:54:43;97930.34;;;19.43;100.00
54918;BME280;40818;50.562;7.454;2023-08-12T20:04:49;97948.22;;;19.40;100.00
54918;BME280;40818;50.562;7.454;2023-08-12T20:14:52;97943.34;;;19.27;100.00
54918;BME280;40818;50.562;7.454;2023-08-12T20:24:58;97941.41;;;19.11;100.00
54918;BME280;40818;50.562;7.454;2023-08-12T20:35:02;97950.91;;;18.94;100.00
54918;BME280;40818;50.562;7.454;2023-08-12T20:45:09;97949.38;;;18.73;100.00
54918;BME280;40818;50.562;7.454;2023-08-12T20:55:13;97960.19;;;18.60;100.00
54918;BME280;40818;50.562;7.454;2023-08-12T21:05:19;97958.06;;;18.46;100.00
54918;BME280;40818;50.562;7.454;2023-08-12T21:15:23;97958.41;;;18.33;100.00
54918;BME280;40818;50.562;7.454;2023-08-12T21:25:29;97958.31;;;18.15;100.00
54918;BME280;40818;50.562;7.454;2023-08-12T21:35:32;97955.88;;;18.04;100.00
54918;BME280;40818;50.562;7.454;2023-08-12T21:45:38;97957.78;;;18.02;100.00
54918;BME280;40818;50.562;7.454;2023-08-12T21:55:42;97964.13;;;17.89;100.00
54918;BME280;40818;50.562;7.454;2023-08-12T22:05:49;97952.13;;;17.77;100.00
54918;BME280;40818;50.562;7.454;2023-08-12T22:15:52;97945.25;;;17.66;100.00
54918;BME280;40818;50.562;7.454;2023-08-12T22:25:58;97952.28;;;17.56;100.00
54918;BME280;40818;50.562;7.454;2023-08-12T22:36:02;97948.88;;;17.46;100.00
54918;BME280;40818;50.562;7.454;2023-08-12T22:46:11;97949.00;;;17.34;100.00
54918;BME280;40818;50.562;7.454;2023-08-12T22:56:15;97943.19;;;17.21;100.00
54918;BME280;40818;50.562;7.454;2023-08-12T23:06:21;97950.47;;;17.08;100.00
54918;BME280;40818;50.562;7.454;2023-08-12T23:16:26;97947.59;;;17.01;100.00
54918;BME280;40818;50.562;7.454;2023-08-12T23:26:32;97941.50;;;17.00;100.00
54918;BME280;40818;50.562;7.454;2023-08-12T23:36:37;97944.28;;;17.09;100.00
54918;BME280;40818;50.562;7.454;2023-08-12T23:46:44;97951.75;;;17.13;100.00
54918;BME280;40818;50.562;7.454;2023-08-12T23:56:48;97940.72;;;17.19;100.00
